Time;durP1;ratioP1;P1;durP2;ratioP2;P2;SDS_P1;SDS_P2;PMS_P1;PMS_P2;Temp;Humidity;BMP_temperature;BMP_pressure;BME280_temperature;BME280_humidity;BME280_pressure;Samples;Min_cycle;Max_cycle;Signal;HPM_P1;HPM_P2
2021/10/14 00:02:22;;;;;;;15.73;9.70;;;7.70;99.90;;;;;;5059977;28;20031;-94
2021/10/14 00:04:48;;;;;;;19.75;11.75;;;7.70;99.90;;;;;;5060156;28;20072;-94
2021/10/14 00:07:13;;;;;;;17.10;10.90;;;7.70;99.90;;;;;;5062851;28;20055;-94
2021/10/14 00:09:39;;;;;;;19.73;13.02;;;7.70;99.90;;;;;;5060827;28;20041;-94
2021/10/14 00:12:05;;;;;;;19.42;11.63;;;7.60;99.90;;;;;;5060990;28;20025;-95
2021/10/14 00:14:31;;;;;;;25.77;13.05;;;7.70;99.90;;;;;;5060905;28;20387;-93
2021/10/14 00:16:57;;;;;;;17.65;11.50;;;7.70;99.90;;;;;;5060079;28;20119;-94
2021/10/14 00:19:23;;;;;;;22.20;11.73;;;7.70;99.90;;;;;;5061835;28;20032;-94
2021/10/14 00:21:49;;;;;;;19.13;10.88;;;7.70;99.90;;;;;;5058698;28;20028;-94
2021/10/14 00:24:15;;;;;;;15.50;10.57;;;7.70;99.90;;;;;;5070308;28;20008;-94
2021/10/14 00:26:41;;;;;;;19.98;10.02;;;7.70;99.90;;;;;;5081269;28;20028;-94
2021/10/14 00:29:06;;;;;;;17.58;11.93;;;7.70;99.90;;;;;;5081641;28;20027;-93
2021/10/14 00:31:32;;;;;;;17.02;11.05;;;7.70;99.90;;;;;;5072642;28;20483;-94
2021/10/14 00:33:58;;;;;;;17.80;11.52;;;7.70;99.90;;;;;;5077500;28;20032;-94
2021/10/14 00:36:24;;;;;;;18.75;12.15;;;7.70;99.90;;;;;;5059014;28;20043;-93
2021/10/14 00:38:50;;;;;;;17.05;10.80;;;7.70;99.90;;;;;;5058769;28;20518;-94
2021/10/14 00:41:16;;;;;;;18.73;10.60;;;7.70;99.90;;;;;;5059594;28;20028;-93
2021/10/14 00:43:42;;;;;;;21.00;12.63;;;7.70;99.90;;;;;;5076784;28;20032;-93
2021/10/14 00:46:17;;;;;;;20.27;11.43;;;7.70;99.90;;;;;;5076751;28;20036;-94
2021/10/14 00:48:44;;;;;;;17.67;10.57;;;7.70;99.90;;;;;;5058752;28;20025;-93
2021/10/14 00:51:10;;;;;;;13.57;9.80;;;7.70;99.90;;;;;;5060412;28;20082;-93
2021/10/14 00:53:40;;;;;;;21.00;11.98;;;7.70;99.90;;;;;;5074666;28;20014;-93
2021/10/14 00:56:08;;;;;;;14.98;9.50;;;7.70;99.90;;;;;;5075351;28;20039;-93
2021/10/14 00:58:35;;;;;;;15.23;9.60;;;7.70;99.90;;;;;;5079228;28;20044;-93
2021/10/14 01:01:05;;;;;;;19.80;10.38;;;7.70;99.90;;;;;;5058930;28;20123;-94
2021/10/14 01:03:31;;;;;;;15.13;9.65;;;7.70;99.90;;;;;;5077634;28;20028;-94
2021/10/14 01:05:58;;;;;;;16.85;10.82;;;7.70;99.90;;;;;;5059652;28;20039;-94
2021/10/14 01:08:24;;;;;;;21.23;12.30;;;7.80;99.90;;;;;;5075461;28;20096;-94
2021/10/14 01:10:51;;;;;;;15.55;10.27;;;7.80;99.90;;;;;;5057865;28;20391;-94
2021/10/14 01:13:17;;;;;;;18.88;10.60;;;7.80;99.90;;;;;;5058268;28;20181;-94
2021/10/14 01:15:44;;;;;;;21.58;11.32;;;7.70;99.90;;;;;;5057745;28;20123;-93
2021/10/14 01:18:11;;;;;;;23.85;13.57;;;7.80;99.90;;;;;;5075437;28;20085;-93
2021/10/14 01:20:37;;;;;;;16.45;10.10;;;7.80;99.90;;;;;;5075271;28;20425;-93
2021/10/14 01:23:03;;;;;;;20.73;11.95;;;7.80;99.90;;;;;;5057163;28;20082;-94
2021/10/14 01:25:30;;;;;;;23.27;13.02;;;7.80;99.90;;;;;;5075327;28;20036;-94
2021/10/14 01:27:56;;;;;;;23.25;11.57;;;7.80;99.90;;;;;;5057101;28;20036;-93
2021/10/14 01:30:22;;;;;;;16.02;10.32;;;7.80;99.90;;;;;;5057050;28;20020;-93
2021/10/14 01:32:49;;;;;;;20.23;11.82;;;7.80;99.90;;;;;;5074621;28;20029;-94
2021/10/14 01:35:18;;;;;;;13.98;9.30;;;7.80;99.90;;;;;;5075164;28;20021;-93
2021/10/14 01:37:45;;;;;;;15.65;9.82;;;7.80;99.90;;;;;;5074662;28;20087;-94
2021/10/14 01:40:12;;;;;;;21.10;11.07;;;7.80;99.90;;;;;;5056753;28;20063;-93
2021/10/14 01:42:38;;;;;;;18.38;12.35;;;7.80;99.90;;;;;;5057297;28;20123;-93
2021/10/14 01:45:04;;;;;;;18.98;11.80;;;7.80;99.90;;;;;;5074674;28;20060;-94
2021/10/14 01:47:31;;;;;;;22.10;12.13;;;7.80;99.90;;;;;;5056771;28;20024;-94
2021/10/14 01:49:57;;;;;;;24.40;13.43;;;7.90;99.90;;;;;;5056733;28;20050;-94
2021/10/14 01:52:23;;;;;;;22.17;12.32;;;7.80;99.90;;;;;;5057228;28;20455;-94
2021/10/14 01:54:49;;;;;;;18.67;12.60;;;7.90;99.90;;;;;;5056916;28;20059;-94
2021/10/14 01:57:15;;;;;;;18.23;11.88;;;7.80;99.90;;;;;;5056930;28;20029;-93
2021/10/14 01:59:41;;;;;;;20.95;12.00;;;7.80;99.90;;;;;;5057697;28;20075;-93
2021/10/14 02:02:07;;;;;;;22.35;11.65;;;7.80;99.90;;;;;;5059179;28;20029;-93
2021/10/14 02:04:33;;;;;;;23.33;12.70;;;7.90;99.90;;;;;;5077093;28;20043;-94
2021/10/14 02:06:59;;;;;;;21.08;12.40;;;7.90;99.90;;;;;;5056671;28;20085;-95
2021/10/14 02:09:25;;;;;;;28.08;12.88;;;7.90;99.90;;;;;;5056672;28;20024;-93
2021/10/14 02:11:51;;;;;;;19.60;12.43;;;7.90;99.90;;;;;;5074397;28;20090;-92
2021/10/14 02:14:17;;;;;;;24.13;13.50;;;7.90;99.90;;;;;;5056499;28;20178;-93
2021/10/14 02:16:43;;;;;;;17.02;10.27;;;7.90;99.90;;;;;;5058420;28;20379;-92
2021/10/14 02:19:08;;;;;;;21.50;13.18;;;7.90;99.90;;;;;;5063045;28;20020;-93
2021/10/14 02:21:34;;;;;;;19.48;11.20;;;7.90;99.90;;;;;;5061606;28;20050;-92
2021/10/14 02:24:00;;;;;;;30.67;14.82;;;7.90;99.90;;;;;;5056974;28;20445;-93
2021/10/14 02:26:25;;;;;;;24.20;13.60;;;7.90;99.90;;;;;;5056407;28;20044;-93
2021/10/14 02:28:51;;;;;;;23.77;14.38;;;7.90;99.90;;;;;;5074108;28;20107;-93
2021/10/14 02:31:17;;;;;;;22.88;12.30;;;7.90;99.90;;;;;;5056662;28;20029;-93
2021/10/14 02:33:43;;;;;;;22.00;11.52;;;7.90;99.90;;;;;;5056041;28;20032;-93
2021/10/14 02:36:08;;;;;;;21.40;11.80;;;7.90;99.90;;;;;;5074273;28;20032;-94
2021/10/14 02:38:35;;;;;;;23.23;12.27;;;7.90;99.90;;;;;;5055801;28;20102;-94
2021/10/14 02:41:02;;;;;;;20.40;12.43;;;7.90;99.90;;;;;;5074248;28;20035;-93
2021/10/14 02:43:28;;;;;;;29.95;13.35;;;7.90;99.90;;;;;;5056681;28;20475;-93
2021/10/14 02:45:54;;;;;;;20.77;13.98;;;7.90;99.90;;;;;;5060187;28;20055;-93
2021/10/14 02:48:20;;;;;;;28.58;13.05;;;7.90;99.90;;;;;;5060361;28;20029;-93
2021/10/14 02:50:46;;;;;;;22.25;13.18;;;7.90;99.90;;;;;;5060418;28;20025;-94
2021/10/14 02:53:11;;;;;;;25.38;14.82;;;7.90;99.90;;;;;;5078065;28;20028;-93
2021/10/14 02:55:37;;;;;;;24.52;13.07;;;7.90;99.90;;;;;;5060265;28;20041;-93
2021/10/14 02:58:03;;;;;;;20.65;11.63;;;7.90;99.90;;;;;;5060154;28;20040;-93
2021/10/14 03:00:28;;;;;;;22.90;12.95;;;7.90;99.90;;;;;;5059756;28;20029;-93
2021/10/14 03:02:54;;;;;;;31.60;14.52;;;7.90;99.90;;;;;;5060048;28;20028;-93
2021/10/14 03:05:52;;;;;;;21.25;11.88;;;7.90;99.90;;;;;;5059870;28;20434;-93
2021/10/14 03:08:18;;;;;;;18.75;12.07;;;7.90;99.90;;;;;;5059881;28;20024;-93
2021/10/14 03:10:43;;;;;;;18.60;12.45;;;7.90;99.90;;;;;;5059641;28;20021;-93
2021/10/14 03:13:09;;;;;;;20.33;11.43;;;7.90;99.90;;;;;;5059445;28;20031;-92
2021/10/14 03:15:35;;;;;;;23.80;14.27;;;7.90;99.90;;;;;;5059713;28;20037;-92
2021/10/14 03:18:01;;;;;;;23.98;13.93;;;7.90;99.90;;;;;;5060275;28;20111;-92
2021/10/14 03:20:26;;;;;;;27.35;14.02;;;7.90;99.90;;;;;;5059435;28;20074;-93
2021/10/14 03:22:52;;;;;;;25.17;12.57;;;7.90;99.90;;;;;;5059235;28;20035;-93
2021/10/14 03:25:18;;;;;;;22.60;11.75;;;7.90;99.90;;;;;;5077364;28;20029;-93
2021/10/14 03:27:44;;;;;;;27.60;14.65;;;7.80;99.90;;;;;;5059051;28;20060;-92
2021/10/14 03:30:09;;;;;;;23.40;13.30;;;7.80;99.90;;;;;;5059788;28;20029;-93
2021/10/14 03:32:35;;;;;;;23.02;11.52;;;7.80;99.90;;;;;;5060847;28;20020;-93
2021/10/14 03:35:01;;;;;;;22.45;12.80;;;7.80;99.90;;;;;;5059851;28;20032;-93
2021/10/14 03:37:34;;;;;;;24.80;14.52;;;7.80;99.90;;;;;;5059580;28;20056;-93
2021/10/14 03:40:00;;;;;;;19.80;12.02;;;7.80;99.90;;;;;;5059563;28;20384;-92
2021/10/14 03:42:25;;;;;;;24.17;13.02;;;7.80;99.90;;;;;;5058908;28;20032;-93
2021/10/14 03:44:51;;;;;;;22.70;12.82;;;7.80;99.90;;;;;;5059180;28;20040;-93
2021/10/14 03:47:17;;;;;;;24.35;12.80;;;7.80;99.90;;;;;;5058903;28;20032;-92
2021/10/14 03:49:43;;;;;;;25.52;12.82;;;7.80;99.90;;;;;;5058907;28;20120;-93
2021/10/14 03:52:08;;;;;;;21.08;12.88;;;7.80;99.90;;;;;;5058698;28;20032;-93
2021/10/14 03:54:34;;;;;;;21.02;11.73;;;7.80;99.90;;;;;;5058904;28;20116;-92
2021/10/14 03:56:59;;;;;;;25.45;12.60;;;7.70;99.90;;;;;;5076211;28;20490;-93
2021/10/14 03:59:25;;;;;;;24.80;12.95;;;7.70;99.90;;;;;;5076532;28;20039;-93
2021/10/14 04:01:51;;;;;;;25.15;13.27;;;7.70;99.90;;;;;;5058383;28;20460;-92
2021/10/14 04:04:17;;;;;;;21.83;14.10;;;7.70;99.90;;;;;;5076110;28;20050;-92
2021/10/14 04:06:42;;;;;;;20.00;11.50;;;7.70;99.90;;;;;;5076329;28;20082;-92
2021/10/14 04:09:08;;;;;;;20.13;11.75;;;7.70;99.90;;;;;;5059271;28;20447;-92
2021/10/14 04:11:33;;;;;;;18.77;10.43;;;7.70;99.90;;;;;;5058475;28;20463;-92
2021/10/14 04:13:59;;;;;;;22.52;11.48;;;7.70;99.90;;;;;;5076450;28;20119;-92
2021/10/14 04:16:25;;;;;;;18.13;11.57;;;7.70;99.90;;;;;;5058949;28;20489;-92
2021/10/14 04:18:50;;;;;;;14.88;10.05;;;7.70;99.90;;;;;;5058240;28;20028;-92
2021/10/14 04:21:16;;;;;;;22.42;10.98;;;7.70;99.90;;;;;;5058517;28;20028;-92
2021/10/14 04:23:43;;;;;;;16.35;10.63;;;7.60;99.90;;;;;;5058405;28;20025;-93
2021/10/14 04:26:10;;;;;;;15.30;8.75;;;7.70;99.90;;;;;;5058029;28;20047;-93
2021/10/14 04:28:36;;;;;;;21.30;10.35;;;7.60;99.90;;;;;;5076256;28;20025;-93
2021/10/14 04:31:02;;;;;;;20.55;10.52;;;7.60;99.90;;;;;;5058677;28;20544;-92
2021/10/14 04:33:29;;;;;;;19.98;10.65;;;7.70;99.90;;;;;;5057722;28;20064;-92
2021/10/14 04:35:56;;;;;;;27.77;11.95;;;7.70;99.90;;;;;;5058253;28;20055;-92
2021/10/14 04:38:22;;;;;;;20.10;9.07;;;7.70;99.90;;;;;;5054731;28;20049;-92
2021/10/14 04:40:47;;;;;;;16.65;10.48;;;7.60;99.90;;;;;;5055580;28;20430;-93
2021/10/14 04:43:14;;;;;;;16.77;10.15;;;7.70;99.90;;;;;;5055103;28;20112;-92
2021/10/14 04:45:41;;;;;;;18.55;9.65;;;7.70;99.90;;;;;;5054572;28;20033;-93
2021/10/14 04:48:07;;;;;;;20.38;9.85;;;7.70;99.90;;;;;;5054984;28;20041;-92
2021/10/14 04:50:33;;;;;;;14.23;7.53;;;7.70;99.90;;;;;;5055989;28;20501;-92
2021/10/14 04:52:58;;;;;;;15.93;9.13;;;7.70;99.90;;;;;;5054257;28;20116;-92
2021/10/14 04:55:24;;;;;;;16.35;9.40;;;7.70;99.90;;;;;;5055554;28;20025;-93
2021/10/14 04:57:50;;;;;;;12.00;7.80;;;7.70;99.90;;;;;;5056181;28;20364;-94
2021/10/14 05:00:16;;;;;;;13.50;7.93;;;7.70;99.90;;;;;;5055537;28;20039;-92
2021/10/14 05:02:41;;;;;;;15.20;9.65;;;7.70;99.90;;;;;;5054000;28;20025;-93
2021/10/14 05:05:08;;;;;;;15.10;8.18;;;7.60;99.90;;;;;;5054708;28;20032;-92
2021/10/14 05:07:33;;;;;;;15.35;9.82;;;7.70;99.90;;;;;;5057216;28;20032;-92
2021/10/14 05:09:59;;;;;;;14.02;8.43;;;7.60;99.90;;;;;;5059577;28;20033;-92
2021/10/14 05:12:25;;;;;;;13.80;8.65;;;7.60;99.90;;;;;;5063176;28;20056;-93
2021/10/14 05:14:50;;;;;;;12.25;7.68;;;7.60;99.90;;;;;;5064088;28;20089;-92
2021/10/14 05:17:16;;;;;;;13.38;6.88;;;7.60;99.90;;;;;;5060248;28;20525;-93
2021/10/14 05:19:42;;;;;;;19.00;8.05;;;7.60;99.90;;;;;;5056142;28;20029;-92
2021/10/14 05:22:07;;;;;;;15.98;8.85;;;7.70;99.90;;;;;;5055304;28;20025;-93
2021/10/14 05:24:33;;;;;;;14.60;7.03;;;7.60;99.90;;;;;;5054994;28;20029;-93
2021/10/14 05:26:59;;;;;;;12.20;8.43;;;7.60;99.90;;;;;;5054142;28;20114;-93
2021/10/14 05:29:24;;;;;;;16.42;9.70;;;7.60;99.90;;;;;;5053377;28;20079;-92
2021/10/14 05:31:50;;;;;;;13.25;8.55;;;7.60;99.90;;;;;;5053462;28;20021;-92
2021/10/14 05:34:16;;;;;;;17.17;8.60;;;7.60;99.90;;;;;;5054760;28;20104;-92
2021/10/14 05:36:41;;;;;;;11.65;7.50;;;7.70;99.90;;;;;;5053683;28;20025;-92
2021/10/14 05:39:07;;;;;;;12.60;7.55;;;7.70;99.90;;;;;;5054892;28;20124;-92
2021/10/14 05:41:33;;;;;;;14.00;9.00;;;7.70;99.90;;;;;;5036453;28;20035;-92
2021/10/14 05:43:58;;;;;;;13.82;8.90;;;7.70;99.90;;;;;;5036910;28;20110;-92
2021/10/14 05:46:24;;;;;;;15.27;8.65;;;7.70;99.90;;;;;;5036708;28;20033;-92
2021/10/14 05:48:50;;;;;;;18.48;8.75;;;7.70;99.90;;;;;;5054323;28;20414;-91
2021/10/14 05:51:15;;;;;;;19.70;9.13;;;7.70;99.90;;;;;;5054113;28;20033;-92
2021/10/14 05:53:41;;;;;;;15.65;8.05;;;7.70;99.90;;;;;;5036328;28;20025;-91
2021/10/14 05:56:07;;;;;;;13.20;8.13;;;7.80;99.90;;;;;;5054064;28;20047;-91
2021/10/14 05:58:32;;;;;;;13.48;7.82;;;7.80;99.90;;;;;;5054232;28;20034;-91
2021/10/14 06:00:58;;;;;;;11.95;6.70;;;7.80;99.90;;;;;;5036453;28;20036;-92
2021/10/14 06:03:24;;;;;;;13.32;8.00;;;7.80;99.90;;;;;;5036721;28;20033;-92
2021/10/14 06:05:50;;;;;;;11.23;7.15;;;7.80;99.90;;;;;;5041053;28;20044;-91
2021/10/14 06:08:15;;;;;;;13.43;8.07;;;7.80;99.90;;;;;;5054842;28;20089;-91
2021/10/14 06:10:41;;;;;;;14.30;8.57;;;7.80;99.90;;;;;;5070533;28;20056;-91
2021/10/14 06:13:07;;;;;;;12.60;7.43;;;7.80;99.90;;;;;;5049503;28;20029;-92
2021/10/14 06:15:33;;;;;;;12.40;7.43;;;7.80;99.90;;;;;;5054645;28;20565;-92
2021/10/14 06:17:59;;;;;;;14.65;7.53;;;7.80;99.90;;;;;;5039339;28;20029;-90
2021/10/14 06:20:25;;;;;;;15.90;8.13;;;7.90;99.90;;;;;;5040554;28;20060;-91
2021/10/14 06:22:51;;;;;;;14.82;9.18;;;7.90;99.90;;;;;;5040075;28;20463;-92
2021/10/14 06:25:16;;;;;;;12.77;7.47;;;8.00;99.90;;;;;;5040255;28;20025;-92
2021/10/14 06:27:42;;;;;;;12.23;8.18;;;8.00;99.90;;;;;;5040826;28;20025;-91
2021/10/14 06:30:08;;;;;;;14.63;8.82;;;8.10;99.90;;;;;;5058583;28;20017;-91
2021/10/14 06:32:34;;;;;;;12.25;8.80;;;8.10;99.90;;;;;;5041557;28;20129;-92
2021/10/14 06:34:59;;;;;;;14.30;7.97;;;8.10;99.90;;;;;;5040333;28;20459;-91
2021/10/14 06:37:25;;;;;;;13.10;8.38;;;8.10;99.90;;;;;;5063746;28;20132;-91
2021/10/14 06:39:51;;;;;;;15.18;8.27;;;8.20;99.90;;;;;;5080101;28;20036;-92
2021/10/14 06:42:16;;;;;;;13.40;7.90;;;8.10;99.90;;;;;;5077624;28;20029;-89
2021/10/14 06:44:42;;;;;;;13.18;8.23;;;8.10;99.90;;;;;;5077076;28;20493;-91
2021/10/14 06:47:08;;;;;;;13.20;8.07;;;8.10;99.90;;;;;;5059789;28;20147;-91
2021/10/14 06:49:34;;;;;;;12.38;7.30;;;8.10;99.90;;;;;;5060057;28;20381;-91
2021/10/14 06:51:59;;;;;;;14.25;8.75;;;8.10;99.90;;;;;;5078030;28;20158;-91
2021/10/14 06:54:25;;;;;;;13.43;7.55;;;8.20;99.90;;;;;;5059512;28;20028;-91
2021/10/14 06:56:51;;;;;;;14.32;8.10;;;8.30;99.90;;;;;;5059560;28;20028;-91
2021/10/14 06:59:16;;;;;;;12.90;7.65;;;8.40;99.90;;;;;;5077137;28;20035;-92
2021/10/14 07:01:42;;;;;;;18.48;7.20;;;8.50;99.90;;;;;;5077362;28;20513;-92
2021/10/14 07:04:08;;;;;;;12.88;7.85;;;8.60;99.90;;;;;;5059589;28;20028;-92
2021/10/14 07:06:33;;;;;;;15.02;8.63;;;8.60;99.90;;;;;;5058949;28;20036;-91
2021/10/14 07:08:59;;;;;;;13.93;8.02;;;8.70;99.90;;;;;;5059486;28;20055;-92
2021/10/14 07:11:30;;;;;;;12.02;7.35;;;8.70;99.90;;;;;;5077907;28;20099;-92
2021/10/14 07:13:56;;;;;;;9.73;6.75;;;8.80;99.90;;;;;;5078793;28;20020;-91
2021/10/14 07:16:22;;;;;;;14.18;7.80;;;8.90;99.90;;;;;;5059292;28;20067;-92
2021/10/14 07:18:47;;;;;;;9.52;6.35;;;9.00;99.90;;;;;;5076646;28;20060;-91
2021/10/14 07:21:13;;;;;;;11.52;7.72;;;9.00;99.90;;;;;;5059247;28;20051;-91
2021/10/14 07:23:39;;;;;;;12.52;7.50;;;9.10;99.90;;;;;;5059222;28;20039;-91
2021/10/14 07:26:05;;;;;;;12.32;6.15;;;9.20;99.90;;;;;;5065118;28;20029;-91
2021/10/14 07:28:30;;;;;;;12.48;7.47;;;9.20;99.90;;;;;;5064509;28;20030;-91
2021/10/14 07:30:56;;;;;;;11.00;6.65;;;9.30;99.90;;;;;;5062145;28;20380;-91
2021/10/14 07:33:23;;;;;;;11.93;7.22;;;9.30;99.90;;;;;;5065483;28;20032;-91
2021/10/14 07:35:49;;;;;;;12.70;7.50;;;9.30;99.90;;;;;;5081359;28;20107;-91
2021/10/14 07:38:39;;;;;;;8.82;6.05;;;9.30;99.90;;;;;;5060630;28;20091;-92
2021/10/14 07:41:05;;;;;;;9.68;6.28;;;9.40;99.90;;;;;;5064253;28;20038;-91
2021/10/14 07:43:31;;;;;;;11.13;6.28;;;9.40;99.90;;;;;;5081650;28;20099;-92
2021/10/14 07:45:57;;;;;;;13.05;7.15;;;9.50;99.90;;;;;;5063817;28;20460;-92
2021/10/14 07:48:22;;;;;;;10.70;6.47;;;9.50;99.90;;;;;;5062887;28;20111;-91
2021/10/14 07:50:48;;;;;;;10.25;6.88;;;9.50;99.90;;;;;;5062120;28;20094;-92
2021/10/14 07:53:18;;;;;;;11.57;7.28;;;9.60;99.90;;;;;;5061593;28;20024;-93
2021/10/14 07:55:45;;;;;;;11.93;7.03;;;9.60;99.90;;;;;;5060960;28;20092;-91
2021/10/14 07:58:12;;;;;;;11.73;7.47;;;9.70;99.90;;;;;;5059137;28;20039;-91
2021/10/14 08:00:45;;;;;;;10.45;7.40;;;9.70;99.90;;;;;;5076843;28;20040;-91
2021/10/14 08:03:12;;;;;;;14.48;7.63;;;9.80;99.90;;;;;;5059622;28;20036;-91
2021/10/14 08:05:38;;;;;;;9.48;6.85;;;9.80;99.90;;;;;;5063034;28;20108;-91
2021/10/14 08:08:04;;;;;;;11.20;7.93;;;9.90;99.90;;;;;;5070665;28;20011;-91
2021/10/14 08:10:32;;;;;;;9.25;6.18;;;9.90;99.90;;;;;;5073586;28;20382;-91
2021/10/14 08:23:34;;;;;;;8.60;5.82;;;10.20;99.90;;;;;;4997352;28;20065;-92
2021/10/14 08:26:14;;;;;;;11.88;7.85;;;10.20;99.90;;;;;;4968482;28;20085;-91
2021/10/14 08:32:28;;;;;;;9.60;6.13;;;10.40;99.90;;;;;;5087206;28;20084;-92
2021/10/14 08:41:50;;;;;;;11.20;6.22;;;10.70;99.90;;;;;;5079206;28;20128;-92
2021/10/14 08:44:30;;;;;;;10.75;6.07;;;10.80;99.90;;;;;;5083279;28;20515;-92
2021/10/14 08:50:21;;;;;;;9.77;6.32;;;10.90;99.90;;;;;;5082506;28;20028;-93
2021/10/14 08:52:49;;;;;;;11.65;5.55;;;11.00;99.90;;;;;;5064514;28;20062;-92
2021/10/14 08:55:24;;;;;;;10.30;7.10;;;11.10;99.90;;;;;;5064040;28;20032;-93
2021/10/14 09:01:14;;;;;;;10.10;6.47;;;11.30;99.90;;;;;;5079168;28;20051;-91
2021/10/14 09:06:38;;;;;;;8.75;6.55;;;11.50;99.90;;;;;;5080799;28;20387;-92
2021/10/14 09:09:04;;;;;;;8.35;6.30;;;11.50;99.90;;;;;;5064486;28;20058;-92
2021/10/14 09:11:32;;;;;;;8.60;6.18;;;11.60;99.90;;;;;;5061380;28;20036;-92
2021/10/14 09:14:08;;;;;;;10.52;6.00;;;11.70;99.90;;;;;;5076428;28;20503;-91
2021/10/14 09:16:47;;;;;;;7.90;6.13;;;11.80;99.90;;;;;;5082268;28;20020;-92
2021/10/14 09:19:13;;;;;;;8.43;6.65;;;11.90;99.90;;;;;;5066571;28;20024;-92
2021/10/14 09:25:02;;;;;;;10.05;5.95;;;12.00;99.90;;;;;;5087045;28;20043;-93
2021/10/14 09:31:06;;;;;;;7.80;5.18;;;12.00;98.90;;;;;;5022366;28;20041;-92
2021/10/14 09:55:47;;;;;;;6.93;4.55;;;12.20;95.70;;;;;;4963093;28;20625;-93
2021/10/14 09:58:18;;;;;;;6.18;4.25;;;12.10;95.80;;;;;;5028931;28;20037;-91
2021/10/14 10:00:46;;;;;;;7.13;4.32;;;12.20;99.90;;;;;;5056388;28;20036;-92
2021/10/14 10:03:24;;;;;;;7.60;5.25;;;12.30;99.90;;;;;;5057930;28;20029;-92
2021/10/14 10:05:55;;;;;;;8.60;5.93;;;12.40;99.90;;;;;;5042223;28;20037;-92
2021/10/14 10:08:40;;;;;;;6.85;5.20;;;12.50;99.90;;;;;;5058465;28;20483;-93
2021/10/14 10:11:24;;;;;;;9.57;5.07;;;12.50;93.90;;;;;;5040229;28;20120;-93
2021/10/14 10:13:54;;;;;;;11.73;5.63;;;12.60;99.30;;;;;;5043109;28;20033;-91
2021/10/14 10:16:21;;;;;;;9.90;5.90;;;12.60;99.90;;;;;;5039312;28;20041;-91
2021/10/14 10:18:48;;;;;;;11.50;5.80;;;12.70;99.90;;;;;;5040951;28;20032;-92
2021/10/14 10:24:53;;;;;;;8.70;4.90;;;12.80;92.90;;;;;;4996733;28;20085;-91
2021/10/14 10:27:33;;;;;;;7.20;5.00;;;12.90;99.60;;;;;;5040535;28;20037;-92
2021/10/14 10:29:59;;;;;;;7.63;5.13;;;12.90;92.90;;;;;;5043250;28;20025;-91
2021/10/14 10:32:25;;;;;;;8.30;5.72;;;12.80;94.10;;;;;;5036613;28;20053;-89
2021/10/14 10:37:29;;;;;;;6.30;5.32;;;12.60;96.50;;;;;;5053831;28;20097;-91
2021/10/14 10:43:37;;;;;;;6.40;4.85;;;12.70;95.60;;;;;;5059637;28;20063;-92
2021/10/14 10:46:50;;;;;;;;;;;;;;;;;;;;;
2021/10/14 10:49:27;;;;;;;10.02;4.90;;;12.90;91.90;;;;;;5063566;28;20115;-91
2021/10/14 10:51:57;;;;;;;6.78;4.97;;;13.00;89.50;;;;;;5044615;28;20043;-90
2021/10/14 10:54:51;;;;;;;8.13;5.00;;;13.00;94.80;;;;;;5059962;28;20040;-89
2021/10/14 10:58:07;;;;;;;7.82;4.80;;;13.00;91.10;;;;;;5053001;28;20035;-90
2021/10/14 11:00:44;;;;;;;6.15;4.60;;;13.10;93.70;;;;;;5040360;28;20025;-92
2021/10/14 11:03:56;;;;;;;7.85;5.80;;;13.20;89.30;;;;;;5039697;28;20066;-92
2021/10/14 11:07:00;;;;;;;6.82;5.10;;;13.10;87.00;;;;;;5064605;28;20024;-92
2021/10/14 11:09:20;;;;;;;7.10;4.82;;;13.20;91.50;;;;;;5059620;28;20043;-91
2021/10/14 11:11:55;;;;;;;4.65;3.90;;;13.10;93.90;;;;;;5070615;28;20021;-91
2021/10/14 11:14:38;;;;;;;5.57;4.68;;;13.10;93.90;;;;;;5035523;28;20032;-91
2021/10/14 11:17:15;;;;;;;6.75;5.20;;;13.10;94.20;;;;;;5049515;28;20052;-92
2021/10/14 11:19:45;;;;;;;9.00;5.85;;;12.90;93.40;;;;;;5042501;28;20040;-91
2021/10/14 11:22:16;;;;;;;8.90;6.55;;;12.80;93.00;;;;;;5051937;28;20029;-91
2021/10/14 11:25:03;;;;;;;7.82;6.18;;;12.80;92.70;;;;;;5040396;28;20037;-92
2021/10/14 11:27:33;;;;;;;8.18;6.35;;;12.80;92.10;;;;;;5062511;28;20032;-91
2021/10/14 11:30:19;;;;;;;7.70;5.97;;;12.70;85.80;;;;;;5061704;28;20044;-91
2021/10/14 11:32:57;;;;;;;6.78;5.07;;;12.60;90.50;;;;;;5052457;28;20459;-93
2021/10/14 11:35:31;;;;;;;6.53;5.40;;;12.60;93.60;;;;;;5058828;28;20077;-91
2021/10/14 11:38:10;;;;;;;9.15;5.70;;;12.60;93.10;;;;;;5056152;28;20116;-92
2021/10/14 11:40:48;;;;;;;8.82;5.75;;;12.50;92.40;;;;;;5056752;28;20021;-92
2021/10/14 11:43:22;;;;;;;7.95;5.30;;;12.50;93.80;;;;;;5050256;28;20103;-91
2021/10/14 11:45:48;;;;;;;8.60;5.93;;;12.50;94.60;;;;;;5055726;28;20040;-92
2021/10/14 11:48:34;;;;;;;9.75;6.95;;;12.50;93.70;;;;;;5048060;28;20804;-91
2021/10/14 11:51:02;;;;;;;8.93;5.38;;;12.50;91.30;;;;;;5046976;28;20035;-92
2021/10/14 11:56:52;;;;;;;6.28;5.20;;;12.70;94.40;;;;;;5035656;28;20468;-92
2021/10/14 11:59:30;;;;;;;7.82;5.50;;;12.80;91.70;;;;;;5041230;28;20022;-92
2021/10/14 12:02:14;;;;;;;7.97;5.43;;;12.80;94.40;;;;;;5045610;28;20432;-90
2021/10/14 12:04:53;;;;;;;9.38;6.10;;;12.80;92.90;;;;;;5050009;28;20033;-93
2021/10/14 12:07:25;;;;;;;9.25;6.35;;;12.70;91.40;;;;;;5048690;28;20131;-92
2021/10/14 12:09:59;;;;;;;7.57;5.13;;;12.60;91.40;;;;;;5039869;28;20464;-92
2021/10/14 12:12:33;;;;;;;10.00;6.22;;;12.60;94.30;;;;;;5046474;28;20112;-92
2021/10/14 12:15:11;;;;;;;9.45;6.53;;;12.60;94.30;;;;;;5038128;28;20029;-92
2021/10/14 12:17:49;;;;;;;7.95;5.55;;;12.60;93.60;;;;;;5050422;28;20025;-90
2021/10/14 12:20:23;;;;;;;7.43;5.63;;;12.60;93.60;;;;;;5038383;28;20090;-92
2021/10/14 12:22:51;;;;;;;7.38;5.75;;;12.70;91.70;;;;;;5052553;28;20039;-92
2021/10/14 12:25:37;;;;;;;10.80;6.15;;;12.70;94.00;;;;;;5042879;28;20064;-93
2021/10/14 12:28:10;;;;;;;9.05;6.15;;;12.90;94.00;;;;;;5037814;28;20029;-92
2021/10/14 12:30:44;;;;;;;9.75;6.20;;;13.00;91.80;;;;;;5046424;28;20025;-94
2021/10/14 12:33:12;;;;;;;12.75;6.10;;;13.20;89.80;;;;;;5045374;28;20179;-92
2021/10/14 12:35:50;;;;;;;8.30;5.43;;;13.30;91.70;;;;;;5039291;28;20029;-93
2021/10/14 12:38:17;;;;;;;11.48;6.03;;;13.30;90.50;;;;;;5042395;28;20025;-92
2021/10/14 12:41:14;;;;;;;8.07;5.93;;;13.20;86.20;;;;;;5037301;28;20377;-93
2021/10/14 12:43:58;;;;;;;6.15;4.97;;;13.10;87.20;;;;;;5029017;28;20042;-91
2021/10/14 12:46:58;;;;;;;6.90;5.35;;;13.10;89.60;;;;;;5039485;28;20115;-92
2021/10/14 12:49:39;;;;;;;8.85;5.57;;;13.00;82.00;;;;;;5053270;28;20029;-92
2021/10/14 12:52:19;;;;;;;6.63;4.75;;;12.90;86.70;;;;;;5054176;28;20128;-91
2021/10/14 12:55:06;;;;;;;9.68;5.30;;;12.90;86.40;;;;;;5055769;28;20032;-92
2021/10/14 12:57:35;;;;;;;8.18;4.95;;;12.90;85.60;;;;;;5044806;28;20167;-91
2021/10/14 13:00:11;;;;;;;7.22;5.30;;;12.90;87.40;;;;;;5037116;28;20037;-91
2021/10/14 13:02:49;;;;;;;6.45;5.47;;;12.90;86.10;;;;;;5051710;28;20032;-92
2021/10/14 13:05:22;;;;;;;7.60;5.55;;;12.90;83.20;;;;;;5056533;28;20037;-91
2021/10/14 13:08:02;;;;;;;7.88;5.53;;;12.80;84.80;;;;;;5038973;28;20049;-92
2021/10/14 13:10:50;;;;;;;;;;;;;;;;;;;;;
2021/10/14 13:13:24;;;;;;;7.82;4.65;;;12.80;87.40;;;;;;5044524;28;20450;-91
2021/10/14 13:15:53;;;;;;;;;;;12.80;90.10;;;;;;5047467;28;20120;-92
2021/10/14 13:18:28;;;;;;;6.10;4.13;;;12.80;82.40;;;;;;5035057;28;19905;-91
2021/10/14 13:21:27;;;;;;;7.10;4.43;;;12.80;90.60;;;;;;5034556;28;20026;-92
2021/10/14 13:24:18;;;;;;;6.60;4.25;;;12.90;89.60;;;;;;5027332;28;20037;-92
2021/10/14 13:26:47;;;;;;;7.53;4.95;;;12.80;90.20;;;;;;5034666;28;20036;-92
2021/10/14 13:29:34;;;;;;;7.97;4.75;;;12.80;90.70;;;;;;5033730;28;20431;-92
2021/10/14 13:32:13;;;;;;;8.65;5.50;;;12.80;91.40;;;;;;5043757;28;20128;-92
2021/10/14 13:34:51;;;;;;;10.27;6.00;;;12.70;91.90;;;;;;5043651;28;20463;-92
2021/10/14 13:37:51;;;;;;;7.95;5.22;;;12.70;91.00;;;;;;5053295;28;20017;-91
2021/10/14 13:40:28;;;;;;;7.55;5.80;;;12.50;90.50;;;;;;5045070;28;20061;-92
2021/10/14 13:42:56;;;;;;;5.90;4.43;;;12.50;90.80;;;;;;5039971;28;20091;-92
2021/10/14 13:45:22;;;;;;;7.53;5.20;;;12.40;91.50;;;;;;5042123;28;20123;-92
2021/10/14 13:48:00;;;;;;;8.10;6.00;;;12.30;91.50;;;;;;5047407;28;20033;-91
2021/10/14 13:50:38;;;;;;;7.50;4.53;;;12.30;89.30;;;;;;5041402;28;20040;-92
2021/10/14 13:53:05;;;;;;;6.80;4.68;;;12.30;92.30;;;;;;5038856;28;20025;-92
2021/10/14 13:55:48;;;;;;;6.47;4.55;;;12.30;92.90;;;;;;5052103;28;20479;-91
2021/10/14 14:02:20;;;;;;;8.20;4.15;;;12.50;90.70;;;;;;4986285;28;20038;-93
2021/10/14 14:08:24;;;;;;;6.00;4.38;;;12.50;92.90;;;;;;4977374;28;20038;-92
2021/10/14 14:11:23;;;;;;;;;;;;;;;;;;;;;
2021/10/14 14:18:53;;;;;;;6.53;4.85;;;12.70;90.80;;;;;;5013273;28;20037;-93
2021/10/14 14:21:47;;;;;;;;;;;;;;;;;;;;;
2021/10/14 14:24:15;;;;;;;7.30;4.15;;;12.90;90.60;;;;;;5054807;28;20056;-87
2021/10/14 14:26:43;;;;;;;9.13;5.13;;;12.90;93.00;;;;;;5040476;28;20048;-87
2021/10/14 14:29:10;;;;;;;6.70;4.50;;;12.80;91.00;;;;;;5060013;28;20036;-87